Latest Coastal Weather Observations for St Lawrence

IDQ60701

Issued at 6:42 am EST Friday 24 February 2017 (issued every 10 minutes, with the page automatically refreshed every 10 minutes)

About coastal observations | Map of coastal stations | Coastal observations for QLD | Marine services | Other Formats
Station Details ID: 033210 Name: ST LAWRENCE Lat: -22.35 Lon: 149.52 Height: 9.19 m
Data from the previous 72 hours. | See also: Recent months at St Lawrence
Date/Time
EST
Temp
°C
Wind Pressure Rain since
9am
mm
Weather Cloud Vis
km
Sea
Height
m
Swell
Dir  Spd
kts
Gust
kts
hPa Trend Height
m
Period
s
Dir
24/06:30am 23.1 S 6 7 1015.1 - 0.0 - - - - - - -
24/06:00am 22.6 S 5 7 1014.9 - 0.0 - - - - - - -
24/05:30am 22.8 S 4 5 1014.5 - 0.0 - - - - - - -
24/05:00am 22.7 S 3 4 1014.5 - 0.0 - - - - - - -
24/04:30am 22.5 CALM 0 0 1014.4 - 0.0 - - - - - - -
24/04:00am 23.4 CALM 0 0 1014.3 - 0.0 - - - - - - -
24/03:30am 23.3 CALM 0 0 1014.3 - 0.0 - - - - - - -
24/03:00am 24.3 CALM 0 3 1014.1 - 0.0 - - - - - - -
24/02:30am 24.7 S 3 4 1014.3 - 0.0 - - - - - - -
24/02:00am 24.4 S 3 4 1014.6 - 0.0 - - - - - - -
24/01:30am 24.2 SSW 3 4 1014.9 - 0.0 - - - - - - -
24/01:00am 24.5 CALM 0 0 1015.2 - 0.0 - - - - - - -
24/12:30am 24.7 SSW 3 4 1015.6 - 0.0 - - - - - - -
24/12:00am 25.2 SSE 2 4 1015.6 - 0.0 - - - - - - -
 
Date/Time
EST
Temp
°C
Wind Pressure Rain since
9am
mm
Weather Cloud Vis
km
Sea
Height
m
Swell
Dir  Spd
kts
Gust
kts
hPa Trend Height
m
Period
s
Dir
23/11:30pm 25.2 SE 2 4 1015.7 - 0.0 - - - - - - -
23/11:00pm 25.9 CALM 0 0 1015.6 - 0.0 - - - - - - -
23/10:30pm 26.6 NE 2 4 1015.6 - 0.0 - - - - - - -
23/10:00pm 27.0 ENE 5 6 1015.6 - 0.0 - - - - - - -
23/09:30pm 27.4 E 6 9 1015.6 - 0.0 - - - - - - -
23/09:00pm 27.7 ENE 4 7 1015.3 - 0.0 - - - - - - -
23/08:30pm 27.9 NE 5 7 1014.9 - 0.0 - - - - - - -
23/08:00pm 28.4 NE 8 11 1014.4 - 0.0 - - - - - - -
23/07:30pm 28.7 NE 7 10 1014.2 - 0.0 - - - - - - -
23/07:00pm 28.8 NE 9 13 1013.8 - 0.0 - - - - - - -
23/06:30pm 29.2 NNE 8 11 1013.4 - 0.0 - - - - - - -
23/06:00pm 29.9 NNE 10 14 1013.0 - 0.0 - - - - - - -
23/05:30pm 30.4 NNE 11 15 1012.4 - 0.0 - - - - - - -
23/05:00pm 31.1 NNE 10 13 1012.3 - 0.0 - - - - - - -
23/04:30pm 31.3 NNE 10 13 1012.2 - 0.0 - - - - - - -
23/04:00pm 32.1 NNE 10 14 1012.1 - 0.0 - - - - - - -
23/03:30pm 33.5 NE 10 15 1012.1 - 0.0 - - - - - - -
23/03:00pm 32.6 NNE 11 15 1012.4 - 0.0 - - - - - - -
23/02:30pm 34.0 NNE 9 14 1012.6 - 0.0 - - - - - - -
23/02:00pm 33.2 NE 8 13 1013.0 - 0.0 - - - - - - -
23/01:30pm 32.7 ESE 7 11 1013.5 - 0.0 - - - - - - -
23/01:00pm 32.8 NE 5 7 1014.0 - 0.0 - - - - - - -
23/12:30pm 33.3 SE 4 10 1014.4 - 0.0 - - - - - - -
23/12:00pm 32.2 E 3 6 1014.8 - 0.0 - - - - - - -
23/11:30am 32.4 ENE 7 12 1015.1 - 0.0 - - - - - - -
23/11:00am 30.7 S 5 8 1015.6 - 0.0 - - - - - - -
23/10:30am 29.5 SSE 5 11 1016.1 - 0.0 - - - - - - -
23/10:00am 29.0 SSE 8 13 1016.4 - 0.0 - - - - - - -
23/09:30am 28.9 SE 7 11 1016.5 - 0.0 - - - - - - -
23/09:00am 28.6 SE 6 9 1016.8 - 0.0 - - - - - - -
23/08:30am 27.4 SSE 8 11 1016.6 - 0.0 - - - - - - -
23/08:00am 26.3 S 8 12 1016.4 - 0.0 - - - - - - -
23/07:30am 25.3 S 8 12 1016.2 - 0.0 - - - - - - -
23/07:00am 24.1 S 7 10 1015.9 - 0.0 - - - - - - -
23/06:30am 23.4 S 6 8 1015.6 - 0.0 - - - - - - -
23/06:00am 23.0 S 5 6 1015.4 - 0.0 - - - - - - -
23/05:30am 22.9 S 5 7 1015.1 - 0.0 - - - - - - -
23/05:00am 22.5 S 4 5 1014.8 - 0.0 - - - - - - -
23/04:30am 22.6 S 5 7 1014.7 - 0.0 - - - - - - -
23/04:00am 22.9 S 5 6 1014.4 - 0.0 - - - - - - -
23/03:30am 23.2 S 4 5 1014.3 - 0.0 - - - - - - -
23/03:00am 23.5 S 4 6 1014.4 - 0.0 - - - - - - -
23/02:30am 23.7 S 4 5 1014.5 - 0.0 - - - - - - -
23/02:00am 24.2 S 4 4 1014.5 - 0.0 - - - - - - -
23/01:30am 24.0 S 3 4 1014.8 - 0.0 - - - - - - -
23/01:00am 24.3 S 4 5 1015.0 - 0.0 - - - - - - -
23/12:30am 24.5 S 4 5 1015.1 - 0.0 - - - - - - -
23/12:00am 24.8 S 3 4 1015.4 - 0.0 - - - - - - -
 
Date/Time
EST
Temp
°C
Wind Pressure Rain since
9am
mm
Weather Cloud Vis
km
Sea
Height
m
Swell
Dir  Spd
kts
Gust
kts
hPa Trend Height
m
Period
s
Dir
22/11:30pm 25.2 S 4 5 1015.6 - 0.0 - - - - - - -
22/11:00pm 25.6 S 3 4 1015.8 - 0.0 - - - - - - -
22/10:30pm 26.2 SE 2 3 1015.7 - 0.0 - - - - - - -
22/10:00pm 26.7 SSE 4 7 1015.6 - 0.0 - - - - - - -
22/09:30pm 26.9 SE 4 6 1015.3 - 0.0 - - - - - - -
22/09:00pm 27.4 ESE 5 8 1015.1 - 0.0 - - - - - - -
22/08:30pm 27.6 E 6 11 1014.6 - 0.0 - - - - - - -
22/08:00pm 28.1 E 6 11 1014.1 - 0.0 - - - - - - -
22/07:30pm 28.6 E 7 13 1013.7 - 0.0 - - - - - - -
22/07:00pm 29.1 ENE 7 11 1013.4 - 0.0 - - - - - - -
22/06:30pm 29.5 ENE 7 12 1013.1 - 0.0 - - - - - - -
22/06:00pm 29.6 ENE 7 14 1013.0 - 0.0 - - - - - - -
22/05:30pm 29.8 ENE 8 12 1012.8 - 0.0 - - - - - - -
22/05:00pm 29.9 ENE 9 14 1012.8 - 0.0 - - - - - - -
22/04:30pm 30.6 ENE 8 15 1012.6 - 0.0 - - - - - - -
22/04:00pm 30.5 ENE 9 15 1012.6 - 0.0 - - - - - - -
22/03:30pm 30.8 E 11 17 1012.5 - 0.0 - - - - - - -
22/03:00pm 30.0 E 10 16 1012.6 - 0.0 - - - - - - -
22/02:30pm 30.4 E 11 19 1012.7 - 0.0 - - - - - - -
22/02:00pm 32.1 E 11 17 1012.8 - 0.0 - - - - - - -
22/01:30pm 31.6 ENE 11 21 1012.9 - 0.0 - - - - - - -
22/01:00pm 31.6 ENE 9 15 1013.0 - 0.0 - - - - - - -
22/12:30pm 32.1 ESE 10 16 1013.5 - 0.0 - - - - - - -
22/12:00pm 31.4 ESE 9 15 1014.0 - 0.0 - - - - - - -
22/11:30am 32.1 E 8 13 1014.1 - 0.0 - - - - - - -
22/11:00am 30.9 ESE 8 13 1014.7 - 0.0 - - - - - - -
22/10:30am 30.0 ESE 7 11 1015.3 - 0.0 - - - - - - -
22/10:00am 29.4 SE 8 12 1015.4 - 0.0 - - - - - - -
22/09:30am 29.0 SE 8 13 1015.6 - 0.0 - - - - - - -
22/09:00am 28.4 SE 8 12 1015.6 - 0.0 - - - - - - -
22/08:30am 28.2 SE 7 11 1015.7 - 0.0 - - - - - - -
22/08:00am 28.4 SE 8 12 1015.4 - 0.0 - - - - - - -
22/07:30am 27.3 SSE 6 9 1015.3 - 0.0 - - - - - - -
22/07:00am 26.3 SSE 3 5 1015.2 - 0.0 - - - - - - -
22/06:30am 25.8 S 5 7 1015.0 - 0.0 - - - - - - -
22/06:00am 25.6 S 5 6 1014.7 - 0.0 - - - - - - -
22/05:30am 25.6 S 4 5 1014.4 - 0.0 - - - - - - -
22/05:00am 25.6 S 4 7 1014.0 - 0.0 - - - - - - -
22/04:30am 25.5 S 5 6 1013.6 - 0.0 - - - - - - -
22/04:00am 25.3 SSE 5 7 1013.5 - 0.0 - - - - - - -
22/03:30am 25.1 S 5 6 1013.5 - 0.0 - - - - - - -
22/03:00am 25.3 S 5 6 1013.3 - 0.0 - - - - - - -
22/02:30am 25.5 S 4 5 1013.4 - 0.0 - - - - - - -
22/02:00am 26.3 SE 3 4 1013.5 - 0.0 - - - - - - -
22/01:30am 26.6 SE 2 3 1013.8 - 0.0 - - - - - - -
22/01:00am 27.1 E 3 4 1014.1 - 0.0 - - - - - - -
22/12:30am 27.5 E 4 7 1014.3 - 0.0 - - - - - - -
22/12:00am 27.5 ESE 3 5 1014.2 - 0.0 - - - - - - -
 
Date/Time
EST
Temp
°C
Wind Pressure Rain since
9am
mm
Weather Cloud Vis
km
Sea
Height
m
Swell
Dir  Spd
kts
Gust
kts
hPa Trend Height
m
Period
s
Dir
21/11:30pm 27.7 E 4 6 1014.3 - 0.0 - - - - - - -
21/11:00pm 27.6 E 3 5 1014.2 - 0.0 - - - - - - -
21/10:30pm 27.8 E 4 6 1014.2 - 0.0 - - - - - - -
21/10:00pm 28.0 ESE 4 6 1014.1 - 0.0 - - - - - - -
21/09:30pm 28.3 ENE 4 7 1014.2 - 0.0 - - - - - - -
21/09:00pm 28.3 NE 5 8 1013.9 - 0.0 - - - - - - -
21/08:30pm 28.3 ENE 5 9 1013.6 - 0.0 - - - - - - -
21/08:00pm 28.3 ENE 5 8 1013.5 - 0.0 - - - - - - -
21/07:30pm 28.2 ENE 3 6 1013.3 - 0.0 - - - - - - -
21/07:00pm 28.3 NE 8 11 1012.9 - 0.0 - - - - - - -
21/06:30pm 28.4 NE 11 17 1012.6 - 0.0 - - - - - - -
21/06:00pm 29.6 NNE 11 16 1012.3 - 0.0 - - - - - - -
21/05:30pm 30.1 NE 12 18 1012.1 - 0.0 - - - - - - -
21/05:00pm 31.1 NNE 12 16 1011.5 - 0.0 - - - - - - -
21/04:30pm 31.5 NNE 12 16 1011.2 - 0.0 - - - - - - -
21/04:00pm 31.4 NNE 13 17 1011.1 - 0.0 - - - - - - -
21/03:30pm 33.0 NE 12 16 1010.8 - 0.0 - - - - - - -
21/03:00pm 34.5 NNE 12 16 1010.8 - 0.0 - - - - - - -
21/02:30pm 34.6 NNE 10 15 1011.0 - 0.0 - - - - - - -
21/02:00pm 34.7 NNE 10 13 1011.2 - 0.0 - - - - - - -
21/01:30pm 33.9 NNE 10 14 1011.6 - 0.0 - - - - - - -
21/01:00pm 33.7 NNE 9 15 1012.1 - 0.0 - - - - - - -
21/12:30pm 32.2 NNE 10 13 1012.6 - 0.0 - - - - - - -
21/12:00pm 33.2 NNE 8 11 1012.9 - 0.0 - - - - - - -
21/11:30am 32.1 NNE 6 10 1013.1 - 0.0 - - - - - - -
21/11:00am 32.0 NNE 5 9 1013.4 - 0.0 - - - - - - -
21/10:30am 31.7 S 3 6 1013.8 - 0.0 - - - - - - -
21/10:00am 30.7 ESE 5 7 1014.1 - 0.0 - - - - - - -
21/09:30am 29.2 NW 1 3 1014.2 - 0.0 - - - - - - -
21/09:00am 28.4 SSE 3 5 1014.2 - 0.0 - - - - - - -
21/08:30am 27.5 S 3 5 1014.1 - 0.0 - - - - - - -
21/08:00am 26.1 SSE 2 4 1013.9 - 0.0 - - - - - - -
21/07:30am 25.7 S 3 4 1013.7 - 0.0 - - - - - - -
21/07:00am 24.8 CALM 0 0 1013.5 - 0.0 - - - - - - -

Other Formats:

Comma delimited format used in spreadsheet applications
http://www.bom.gov.au/fwo/IDQ60701/IDQ60701.95369.axf

JavaScript Object Notation format (JSON) in row-major order
http://www.bom.gov.au/fwo/IDQ60701/IDQ60701.95369.json